createdAt,value
2023-02-05T00:02:06.365Z,17.08
2023-02-05T00:04:42.342Z,17.02
2023-02-05T00:07:14.235Z,16.75
2023-02-05T00:09:43.735Z,17.15
2023-02-05T00:12:44.686Z,17.10
2023-02-05T00:15:53.786Z,18.38
2023-02-05T00:18:37.747Z,18.70
2023-02-05T00:23:56.918Z,17.65
2023-02-05T00:26:24.356Z,19.10
2023-02-05T00:29:24.238Z,18.67
2023-02-05T00:31:57.362Z,18.73
2023-02-05T00:34:27.844Z,18.42
2023-02-05T00:37:06.454Z,17.30
2023-02-05T00:39:41.258Z,19.67
2023-02-05T00:42:24.913Z,19.98
2023-02-05T00:45:07.262Z,17.75
2023-02-05T00:50:35.108Z,19.50
2023-02-05T00:53:05.337Z,19.30
2023-02-05T00:55:54.604Z,18.73
2023-02-05T00:58:32.915Z,19.45
2023-02-05T01:03:54.858Z,18.75
2023-02-05T01:06:27.063Z,18.60
2023-02-05T01:09:07.974Z,19.05
2023-02-05T01:14:31.064Z,18.42
2023-02-05T01:16:58.514Z,18.27
2023-02-05T01:19:27.864Z,19.20
2023-02-05T01:22:24.779Z,19.17
2023-02-05T01:25:03.329Z,18.50
2023-02-05T01:27:42.720Z,17.45
2023-02-05T01:30:14.232Z,17.90
2023-02-05T01:33:03.654Z,16.23
2023-02-05T01:35:46.116Z,17.00
2023-02-05T01:38:25.902Z,16.17
2023-02-05T01:40:56.549Z,16.48
2023-02-05T01:43:27.785Z,16.95
2023-02-05T01:46:09.101Z,16.55
2023-02-05T01:49:09.645Z,17.13
2023-02-05T01:52:15.796Z,16.48
2023-02-05T01:55:06.006Z,16.83
2023-02-05T01:57:38.190Z,17.55
2023-02-05T02:00:10.038Z,16.40
2023-02-05T02:02:50.492Z,15.65
2023-02-05T02:05:21.410Z,17.25
2023-02-05T02:07:59.743Z,15.90
2023-02-05T02:10:43.060Z,16.15
2023-02-05T02:13:29.025Z,17.10
2023-02-05T02:16:14.884Z,15.52
2023-02-05T02:18:50.134Z,16.10
2023-02-05T02:21:49.718Z,15.48
2023-02-05T02:25:03.550Z,15.82
2023-02-05T02:27:41.059Z,15.35
2023-02-05T02:30:33.430Z,15.07
2023-02-05T02:33:44.744Z,15.27
2023-02-05T02:36:24.708Z,16.67
2023-02-05T02:39:48.344Z,14.32
2023-02-05T02:42:58.128Z,13.85
2023-02-05T02:45:33.043Z,12.27
2023-02-05T02:48:13.176Z,11.73
2023-02-05T02:50:55.371Z,12.63
2023-02-05T02:53:40.355Z,12.13
2023-02-05T02:56:25.163Z,11.02
2023-02-05T02:59:22.806Z,11.90
2023-02-05T03:02:13.292Z,11.77
2023-02-05T03:05:05.234Z,12.25
2023-02-05T03:08:02.405Z,13.15
2023-02-05T03:11:04.772Z,12.43
2023-02-05T03:13:40.173Z,11.98
2023-02-05T03:16:19.481Z,11.57
2023-02-05T03:19:03.958Z,10.27
2023-02-05T03:21:40.286Z,10.25
2023-02-05T03:24:13.552Z,11.30
2023-02-05T03:26:42.346Z,10.05
2023-02-05T03:29:47.607Z,9.60
2023-02-05T03:32:47.681Z,7.70
2023-02-05T03:35:47.169Z,8.50
2023-02-05T03:41:57.483Z,8.50
2023-02-05T03:48:23.889Z,9.00
2023-02-05T03:51:26.733Z,9.10
2023-02-05T03:54:44.858Z,9.15
2023-02-05T03:57:35.926Z,9.80
2023-02-05T04:00:06.532Z,9.75
2023-02-05T04:02:42.180Z,9.35
2023-02-05T04:05:13.725Z,9.20
2023-02-05T04:07:45.992Z,8.43
2023-02-05T04:10:13.657Z,9.50
2023-02-05T04:12:41.729Z,8.95
2023-02-05T04:15:11.002Z,9.05
2023-02-05T04:17:41.940Z,9.27
2023-02-05T04:20:12.903Z,8.82
2023-02-05T04:22:40.471Z,9.77
2023-02-05T04:25:10.620Z,8.15
2023-02-05T04:27:43.426Z,8.25
2023-02-05T04:30:11.801Z,8.35
2023-02-05T04:32:43.104Z,9.10
2023-02-05T04:35:11.466Z,8.48
2023-02-05T04:37:39.168Z,8.13
2023-02-05T04:40:10.342Z,8.52
2023-02-05T04:42:37.704Z,7.65
2023-02-05T04:45:11.990Z,8.45
2023-02-05T04:47:39.338Z,7.63
2023-02-05T04:50:09.774Z,8.00
2023-02-05T04:52:39.263Z,8.10
2023-02-05T04:55:09.796Z,7.68
2023-02-05T04:57:39.823Z,8.23
2023-02-05T05:00:10.347Z,7.22
2023-02-05T05:02:41.115Z,6.50
2023-02-05T05:05:12.257Z,8.00
2023-02-05T05:07:42.636Z,7.35
2023-02-05T05:10:12.411Z,7.15
2023-02-05T05:12:42.675Z,6.85
2023-02-05T05:15:14.339Z,7.13
2023-02-05T05:17:41.730Z,7.20
2023-02-05T05:20:12.690Z,7.65
2023-02-05T05:22:40.290Z,7.78
2023-02-05T05:25:07.685Z,7.20
2023-02-05T05:27:35.482Z,6.95
2023-02-05T05:30:06.318Z,6.82
2023-02-05T05:32:36.560Z,6.60
2023-02-05T05:35:06.873Z,6.38
2023-02-05T05:37:34.117Z,7.55
2023-02-05T05:40:19.570Z,6.78
2023-02-05T05:43:05.255Z,6.95
2023-02-05T05:45:32.985Z,6.70
2023-02-05T05:48:00.562Z,6.35
2023-02-05T05:50:31.071Z,6.20
2023-02-05T05:53:01.738Z,6.05
2023-02-05T05:55:29.018Z,6.25
2023-02-05T05:57:56.523Z,6.82
2023-02-05T06:00:26.969Z,6.32
2023-02-05T06:02:54.159Z,7.30
2023-02-05T06:05:22.888Z,6.35
2023-02-05T06:07:50.852Z,7.68
2023-02-05T06:10:18.613Z,6.50
2023-02-05T06:12:49.150Z,6.78
2023-02-05T06:15:16.758Z,6.95
2023-02-05T06:17:46.932Z,7.40
2023-02-05T06:20:17.997Z,6.80
2023-02-05T06:22:45.750Z,6.65
2023-02-05T06:25:13.619Z,7.00
2023-02-05T06:27:44.216Z,7.22
2023-02-05T06:30:12.097Z,6.97
2023-02-05T06:32:39.563Z,6.57
2023-02-05T06:35:12.296Z,6.40
2023-02-05T06:37:47.074Z,6.28
2023-02-05T06:40:22.792Z,6.50
2023-02-05T06:42:50.393Z,6.82
2023-02-05T06:45:17.668Z,6.13
2023-02-05T06:47:48.204Z,6.30
2023-02-05T06:50:21.158Z,7.05
2023-02-05T06:52:51.329Z,6.15
2023-02-05T06:55:22.038Z,6.32
2023-02-05T06:57:51.863Z,6.18
2023-02-05T07:00:22.276Z,6.85
2023-02-05T07:02:49.696Z,5.88
2023-02-05T07:05:17.167Z,6.13
2023-02-05T07:07:44.310Z,6.05
2023-02-05T07:10:11.525Z,6.30
2023-02-05T07:12:38.789Z,5.53
2023-02-05T07:15:06.253Z,5.20
2023-02-05T07:17:33.977Z,6.30
2023-02-05T07:20:05.003Z,5.45
2023-02-05T07:22:32.196Z,5.82
2023-02-05T07:25:08.485Z,5.97
2023-02-05T07:27:46.455Z,5.90
2023-02-05T07:30:20.548Z,5.95
2023-02-05T07:32:51.280Z,5.25
2023-02-05T07:35:21.775Z,6.32
2023-02-05T07:37:57.415Z,5.82
2023-02-05T07:40:28.055Z,5.53
2023-02-05T07:43:03.946Z,5.28
2023-02-05T07:45:36.833Z,6.28
2023-02-05T07:48:09.991Z,5.32
2023-02-05T07:50:44.154Z,5.78
2023-02-05T07:53:14.988Z,5.57
2023-02-05T07:55:51.229Z,5.72
2023-02-05T07:58:21.485Z,6.25
2023-02-05T08:00:52.001Z,6.38
2023-02-05T08:03:22.504Z,6.20
2023-02-05T08:05:50.918Z,6.13
2023-02-05T08:08:20.742Z,5.97
2023-02-05T08:10:48.688Z,6.05
2023-02-05T08:13:15.958Z,5.65
2023-02-05T08:15:45.774Z,5.32
2023-02-05T08:18:13.661Z,5.82
2023-02-05T08:20:41.129Z,5.72
2023-02-05T08:23:15.555Z,5.75
2023-02-05T08:25:45.624Z,6.00
2023-02-05T08:28:20.108Z,7.28
2023-02-05T08:31:03.540Z,7.40
2023-02-05T08:33:47.272Z,6.55
2023-02-05T08:36:27.604Z,5.95
2023-02-05T08:39:06.640Z,5.75
2023-02-05T08:41:39.690Z,7.05
2023-02-05T08:44:21.248Z,6.20
2023-02-05T08:46:54.348Z,6.03
2023-02-05T08:49:22.386Z,6.50
2023-02-05T08:51:52.837Z,5.63
2023-02-05T08:54:20.962Z,6.20
2023-02-05T08:56:57.110Z,6.82
2023-02-05T08:59:24.748Z,6.00
2023-02-05T09:01:54.916Z,9.38
2023-02-05T09:04:51.440Z,7.47
2023-02-05T09:07:33.789Z,6.72
2023-02-05T09:10:04.019Z,6.53
2023-02-05T09:12:31.519Z,6.30
2023-02-05T09:15:01.501Z,6.10
2023-02-05T09:17:31.769Z,6.45
2023-02-05T09:20:01.963Z,6.18
2023-02-05T09:22:37.204Z,5.72
2023-02-05T09:25:15.430Z,6.10
2023-02-05T09:27:54.149Z,6.63
2023-02-05T09:30:24.294Z,7.20
2023-02-05T09:32:52.300Z,6.95
2023-02-05T09:35:19.728Z,6.40
2023-02-05T09:37:50.856Z,7.32
2023-02-05T09:40:26.786Z,6.47
2023-02-05T09:43:32.662Z,6.60
2023-02-05T09:49:19.155Z,6.93
2023-02-05T09:52:31.737Z,6.88
2023-02-05T09:55:05.067Z,7.00
2023-02-05T09:57:40.682Z,6.93
2023-02-05T10:00:44.066Z,6.88
2023-02-05T10:03:50.341Z,6.80
2023-02-05T10:06:58.076Z,6.75
2023-02-05T10:10:07.118Z,7.35
2023-02-05T10:13:12.554Z,6.63
2023-02-05T10:16:27.446Z,8.50
2023-02-05T10:19:05.806Z,7.82
2023-02-05T10:21:51.667Z,7.30
2023-02-05T10:24:58.664Z,6.95
2023-02-05T10:27:57.264Z,7.68
2023-02-05T10:30:36.726Z,7.18
2023-02-05T10:33:17.412Z,7.53
2023-02-05T10:35:51.078Z,8.27
2023-02-05T10:41:07.725Z,8.98
2023-02-05T10:43:45.274Z,7.40
2023-02-05T10:46:17.812Z,7.50
2023-02-05T10:48:51.470Z,8.05
2023-02-05T10:51:40.738Z,7.72
2023-02-05T10:54:30.917Z,7.72
2023-02-05T10:56:59.746Z,8.10
2023-02-05T10:59:39.091Z,7.65
2023-02-05T11:02:13.244Z,7.70
2023-02-05T11:05:13.366Z,8.52
2023-02-05T11:08:02.654Z,7.88
2023-02-05T11:10:39.043Z,7.10
2023-02-05T11:13:28.849Z,8.27
2023-02-05T11:22:25.404Z,8.18
2023-02-05T11:25:56.096Z,7.18
2023-02-05T11:28:36.285Z,8.45
2023-02-05T11:32:03.458Z,8.68
2023-02-05T11:34:38.805Z,8.23
2023-02-05T11:37:21.593Z,8.65
2023-02-05T11:42:52.733Z,8.13
2023-02-05T11:45:25.172Z,7.55
2023-02-05T11:48:09.791Z,8.00
2023-02-05T11:50:40.596Z,7.75
2023-02-05T11:53:26.957Z,8.52
2023-02-05T11:56:19.165Z,8.73
2023-02-05T12:03:05.695Z,10.00
2023-02-05T12:08:48.220Z,13.50
2023-02-05T12:12:36.678Z,9.98
2023-02-05T12:19:00.979Z,10.85
2023-02-05T12:21:49.879Z,11.60
2023-02-05T12:25:00.108Z,11.32
2023-02-05T12:28:03.753Z,12.57
2023-02-05T12:31:03.534Z,11.52
2023-02-05T12:37:48.128Z,12.30
2023-02-05T12:40:44.429Z,12.43
2023-02-05T12:43:42.001Z,11.05
2023-02-05T12:47:07.034Z,11.77
2023-02-05T12:49:44.021Z,11.82
2023-02-05T12:52:37.298Z,9.80
2023-02-05T12:55:26.845Z,11.10
2023-02-05T12:58:05.627Z,10.02
2023-02-05T13:00:55.720Z,9.80
2023-02-05T13:03:49.852Z,10.05
2023-02-05T13:06:35.392Z,10.70
2023-02-05T13:09:49.819Z,10.15
2023-02-05T13:12:24.362Z,10.68
2023-02-05T13:15:19.498Z,10.82
2023-02-05T13:18:34.370Z,10.02
2023-02-05T13:21:41.440Z,9.85
2023-02-05T13:25:12.931Z,9.80
2023-02-05T13:28:17.677Z,9.50
2023-02-05T13:30:57.608Z,10.10
2023-02-05T13:33:31.727Z,10.18
2023-02-05T13:36:39.522Z,9.45
2023-02-05T13:39:41.119Z,8.65
2023-02-05T13:42:36.720Z,9.88
2023-02-05T13:45:28.609Z,10.35
2023-02-05T13:48:30.274Z,9.57
2023-02-05T13:51:22.401Z,9.95
2023-02-05T13:53:58.566Z,8.77
2023-02-05T13:56:47.298Z,8.38
2023-02-05T13:59:57.071Z,8.85
2023-02-05T14:02:43.834Z,9.38
2023-02-05T14:05:16.577Z,8.57
2023-02-05T14:07:54.715Z,9.30
2023-02-05T14:10:45.125Z,8.85
2023-02-05T14:13:32.813Z,10.38
2023-02-05T14:16:27.857Z,8.90
2023-02-05T14:19:13.157Z,9.40
2023-02-05T14:22:10.463Z,9.50
2023-02-05T14:24:51.255Z,9.45
2023-02-05T14:27:45.438Z,9.65
2023-02-05T14:31:01.793Z,9.02
2023-02-05T14:33:45.558Z,8.02
2023-02-05T14:36:23.954Z,8.57
2023-02-05T14:38:53.819Z,7.72
2023-02-05T14:41:22.062Z,9.38
2023-02-05T14:44:31.925Z,9.65
2023-02-05T14:47:30.031Z,8.68
2023-02-05T14:50:14.997Z,8.93
2023-02-05T14:52:53.714Z,8.10
2023-02-05T14:55:29.259Z,8.27
2023-02-05T14:58:09.859Z,6.93
2023-02-05T15:00:50.059Z,7.40
2023-02-05T15:03:42.223Z,6.43
2023-02-05T15:06:20.433Z,7.03
2023-02-05T15:09:04.473Z,6.97
2023-02-05T15:12:11.978Z,7.15
2023-02-05T15:15:02.686Z,7.47
2023-02-05T15:17:30.048Z,6.15
2023-02-05T15:20:22.674Z,7.70
2023-02-05T15:22:59.737Z,6.97
2023-02-05T15:25:40.478Z,7.40
2023-02-05T15:28:32.130Z,6.88
2023-02-05T15:31:23.020Z,6.80
2023-02-05T15:34:35.171Z,6.88
2023-02-05T15:37:20.318Z,6.20
2023-02-05T15:40:11.214Z,7.18
2023-02-05T15:42:50.444Z,6.80
2023-02-05T15:45:49.175Z,7.00
2023-02-05T15:48:45.000Z,6.38
2023-02-05T15:51:44.476Z,6.53
2023-02-05T15:54:22.147Z,6.68
2023-02-05T15:56:57.221Z,6.45
2023-02-05T15:59:39.192Z,6.50
2023-02-05T16:02:23.065Z,6.40
2023-02-05T16:05:19.498Z,6.85
2023-02-05T16:08:00.710Z,6.07
2023-02-05T16:10:36.335Z,7.00
2023-02-05T16:13:15.692Z,6.43
2023-02-05T16:15:53.615Z,6.28
2023-02-05T16:18:59.180Z,6.85
2023-02-05T16:21:43.695Z,6.07
2023-02-05T16:24:27.483Z,6.30
2023-02-05T16:27:44.982Z,6.97
2023-02-05T16:30:46.245Z,6.57
2023-02-05T16:33:27.849Z,6.85
2023-02-05T16:36:08.472Z,7.18
2023-02-05T16:38:37.137Z,7.30
2023-02-05T16:41:22.859Z,7.82
2023-02-05T16:47:27.005Z,6.90
2023-02-05T16:53:44.392Z,7.95
2023-02-05T16:56:24.080Z,6.63
2023-02-05T16:59:06.236Z,7.07
2023-02-05T17:01:45.346Z,6.65
2023-02-05T17:04:40.831Z,5.75
2023-02-05T17:07:23.424Z,6.47
2023-02-05T17:09:51.832Z,6.47
2023-02-05T17:12:46.283Z,6.25
2023-02-05T17:15:34.289Z,5.47
2023-02-05T17:18:34.557Z,5.82
2023-02-05T17:21:32.116Z,6.32
2023-02-05T17:24:12.245Z,5.68
2023-02-05T17:26:51.228Z,5.47
2023-02-05T17:29:24.042Z,5.78
2023-02-05T17:31:59.868Z,5.83
2023-02-05T17:34:35.280Z,6.35
2023-02-05T17:40:20.442Z,5.65
2023-02-05T17:42:48.172Z,6.25
2023-02-05T17:45:53.241Z,6.55
2023-02-05T17:48:28.947Z,7.35
2023-02-05T17:51:06.001Z,6.35
2023-02-05T17:53:39.231Z,7.88
2023-02-05T17:56:13.547Z,7.38
2023-02-05T18:01:25.263Z,7.03
2023-02-05T18:04:04.483Z,6.43
2023-02-05T18:06:38.990Z,7.68
2023-02-05T18:09:15.225Z,6.95
2023-02-05T18:12:13.607Z,7.05
2023-02-05T18:14:52.378Z,6.60
2023-02-05T18:17:25.160Z,6.68
2023-02-05T18:20:01.506Z,6.33
2023-02-05T18:22:39.516Z,7.10
2023-02-05T18:25:20.093Z,7.20
2023-02-05T18:27:52.911Z,6.78
2023-02-05T18:30:22.653Z,6.93
2023-02-05T18:32:50.253Z,6.80
2023-02-05T18:36:04.336Z,7.18
2023-02-05T18:38:34.829Z,6.82
2023-02-05T18:41:12.547Z,6.32
2023-02-05T18:43:53.680Z,6.55
2023-02-05T18:46:24.175Z,6.50
2023-02-05T18:48:52.957Z,7.03
2023-02-05T18:51:31.516Z,6.82
2023-02-05T18:54:07.240Z,7.18
2023-02-05T18:56:45.022Z,7.63
2023-02-05T18:59:21.302Z,7.22
2023-02-05T19:01:54.851Z,7.07
2023-02-05T19:04:33.095Z,7.85
2023-02-05T19:07:03.828Z,8.95
2023-02-05T19:09:34.033Z,8.00
2023-02-05T19:12:01.439Z,8.02
2023-02-05T19:14:29.296Z,8.98
2023-02-05T19:16:56.903Z,9.50
2023-02-05T19:19:31.426Z,10.05
2023-02-05T19:22:06.853Z,9.90
2023-02-05T19:24:39.353Z,9.23
2023-02-05T19:27:13.497Z,9.25
2023-02-05T19:29:46.991Z,8.98
2023-02-05T19:34:57.563Z,10.73
2023-02-05T19:37:32.462Z,10.75
2023-02-05T19:40:00.158Z,9.82
2023-02-05T19:42:31.531Z,10.55
2023-02-05T19:44:59.103Z,14.07
2023-02-05T19:47:36.294Z,12.73
2023-02-05T19:50:03.699Z,10.93
2023-02-05T19:52:30.982Z,10.40
2023-02-05T19:55:06.937Z,9.43
2023-02-05T19:57:41.267Z,8.30
2023-02-05T20:00:12.542Z,8.45
2023-02-05T20:02:51.166Z,8.77
2023-02-05T20:05:23.373Z,8.23
2023-02-05T20:07:58.626Z,8.68
2023-02-05T20:10:38.074Z,8.43
2023-02-05T20:13:07.787Z,9.02
2023-02-05T20:18:20.649Z,9.45
2023-02-05T20:20:51.029Z,8.60
2023-02-05T20:23:21.550Z,8.98
2023-02-05T20:25:57.867Z,9.43
2023-02-05T20:28:28.973Z,9.05
2023-02-05T20:31:14.733Z,9.55
2023-02-05T20:33:51.944Z,9.75
2023-02-05T20:36:25.367Z,9.57
2023-02-05T20:39:07.393Z,9.82
2023-02-05T20:41:43.193Z,9.85
2023-02-05T20:44:11.976Z,11.07
2023-02-05T20:46:39.387Z,9.65
2023-02-05T20:49:27.145Z,9.23
2023-02-05T20:51:55.048Z,9.25
2023-02-05T20:54:23.396Z,9.95
2023-02-05T20:57:02.037Z,9.45
2023-02-05T20:59:34.870Z,9.13
2023-02-05T21:02:02.997Z,9.57
2023-02-05T21:04:31.443Z,10.02
2023-02-05T21:06:58.976Z,11.40
2023-02-05T21:09:29.591Z,11.82
2023-02-05T21:11:58.264Z,11.43
2023-02-05T21:14:25.457Z,11.55
2023-02-05T21:16:56.076Z,10.95
2023-02-05T21:19:28.022Z,11.25
2023-02-05T21:21:59.768Z,11.18
2023-02-05T21:24:33.110Z,11.18
2023-02-05T21:27:01.368Z,11.60
2023-02-05T21:29:28.799Z,11.00
2023-02-05T21:31:56.240Z,11.25
2023-02-05T21:34:28.267Z,12.38
2023-02-05T21:36:59.747Z,11.50
2023-02-05T21:39:30.363Z,12.68
2023-02-05T21:42:04.340Z,12.23
2023-02-05T21:44:34.118Z,11.80
2023-02-05T21:47:12.263Z,12.50
2023-02-05T21:49:57.713Z,12.73
2023-02-05T21:52:33.890Z,12.35
2023-02-05T21:55:11.142Z,12.68
2023-02-05T21:57:40.906Z,13.20
2023-02-05T22:00:09.162Z,12.75
2023-02-05T22:02:42.326Z,12.82
2023-02-05T22:05:15.081Z,13.63
2023-02-05T22:07:47.152Z,15.18
2023-02-05T22:10:20.391Z,14.55
2023-02-05T22:12:53.386Z,14.73
2023-02-05T22:15:23.758Z,14.30
2023-02-05T22:17:56.440Z,12.98
2023-02-05T22:20:28.150Z,14.82
2023-02-05T22:23:01.722Z,14.00
2023-02-05T22:25:29.194Z,14.13
2023-02-05T22:28:13.872Z,13.98
2023-02-05T22:30:47.373Z,14.32
2023-02-05T22:33:20.894Z,14.40
2023-02-05T22:35:57.874Z,14.00
2023-02-05T22:38:38.600Z,14.85
2023-02-05T22:41:21.126Z,16.05
2023-02-05T22:43:48.711Z,15.70
2023-02-05T22:46:27.555Z,15.75
2023-02-05T22:48:59.044Z,15.48
2023-02-05T22:51:35.358Z,16.27
2023-02-05T22:54:06.655Z,16.17
2023-02-05T22:56:39.106Z,16.38
2023-02-05T22:59:21.438Z,17.60
2023-02-05T23:01:51.505Z,15.93
2023-02-05T23:04:27.357Z,16.67
2023-02-05T23:06:54.624Z,17.13
2023-02-05T23:09:21.968Z,18.08
2023-02-05T23:11:49.223Z,17.92
2023-02-05T23:14:19.843Z,18.23
2023-02-05T23:16:51.711Z,16.77
2023-02-05T23:19:29.509Z,17.73
2023-02-05T23:21:56.831Z,17.00
2023-02-05T23:24:23.999Z,17.00
2023-02-05T23:26:53.747Z,16.60
2023-02-05T23:29:21.383Z,15.88
2023-02-05T23:31:54.689Z,16.55
2023-02-05T23:34:26.753Z,16.52
2023-02-05T23:37:07.050Z,16.83
2023-02-05T23:39:41.065Z,16.83
2023-02-05T23:42:18.829Z,16.50
2023-02-05T23:44:47.296Z,16.70
2023-02-05T23:47:14.963Z,15.93
2023-02-05T23:49:45.071Z,16.25
2023-02-05T23:52:12.282Z,17.02
2023-02-05T23:54:41.089Z,17.42
2023-02-05T23:57:18.254Z,16.38
2023-02-05T23:59:51.274Z,15.95
